sensor_id;sensor_type;location;lat;lon;timestamp;temperature;humidity
25716;DHT22;13573;50.936;4.328;2023-03-31T00:04:11;11.90;99.90
25716;DHT22;13573;50.936;4.328;2023-03-31T00:06:39;12.00;99.90
25716;DHT22;13573;50.936;4.328;2023-03-31T00:09:10;11.60;99.90
25716;DHT22;13573;50.936;4.328;2023-03-31T00:11:39;11.80;99.90
25716;DHT22;13573;50.936;4.328;2023-03-31T00:14:07;12.40;99.90
25716;DHT22;13573;50.936;4.328;2023-03-31T00:16:35;11.90;99.90
25716;DHT22;13573;50.936;4.328;2023-03-31T00:21:30;11.60;99.90
25716;DHT22;13573;50.936;4.328;2023-03-31T00:24:03;11.60;99.90
25716;DHT22;13573;50.936;4.328;2023-03-31T00:28:58;11.90;99.90
25716;DHT22;13573;50.936;4.328;2023-03-31T00:31:25;11.00;99.90
25716;DHT22;13573;50.936;4.328;2023-03-31T00:38:49;11.80;99.90
25716;DHT22;13573;50.936;4.328;2023-03-31T00:46:33;11.20;99.90
25716;DHT22;13573;50.936;4.328;2023-03-31T00:51:31;11.30;99.90
25716;DHT22;13573;50.936;4.328;2023-03-31T00:56:33;11.10;99.90
25716;DHT22;13573;50.936;4.328;2023-03-31T01:13:47;11.10;99.90
25716;DHT22;13573;50.936;4.328;2023-03-31T01:16:17;11.20;99.90
25716;DHT22;13573;50.936;4.328;2023-03-31T01:21:40;11.20;99.90
25716;DHT22;13573;50.936;4.328;2023-03-31T01:24:19;11.10;99.90
25716;DHT22;13573;50.936;4.328;2023-03-31T01:26:52;10.90;99.90
25716;DHT22;13573;50.936;4.328;2023-03-31T01:52:33;11.20;99.90
25716;DHT22;13573;50.936;4.328;2023-03-31T02:00:11;11.20;99.90
25716;DHT22;13573;50.936;4.328;2023-03-31T02:05:16;11.10;99.90
25716;DHT22;13573;50.936;4.328;2023-03-31T02:10:14;11.00;99.90
25716;DHT22;13573;50.936;4.328;2023-03-31T02:12:43;11.20;99.90
25716;DHT22;13573;50.936;4.328;2023-03-31T02:15:13;11.10;99.90
25716;DHT22;13573;50.936;4.328;2023-03-31T02:20:13;11.10;99.90
25716;DHT22;13573;50.936;4.328;2023-03-31T02:25:13;11.00;99.90
25716;DHT22;13573;50.936;4.328;2023-03-31T02:32:39;11.00;99.90
25716;DHT22;13573;50.936;4.328;2023-03-31T02:37:35;10.80;99.90
25716;DHT22;13573;50.936;4.328;2023-03-31T02:40:07;10.80;99.90
25716;DHT22;13573;50.936;4.328;2023-03-31T02:42:37;11.20;99.90
25716;DHT22;13573;50.936;4.328;2023-03-31T02:45:33;10.80;99.90
25716;DHT22;13573;50.936;4.328;2023-03-31T02:47:35;10.90;99.90
25716;DHT22;13573;50.936;4.328;2023-03-31T02:52:54;10.80;99.90
25716;DHT22;13573;50.936;4.328;2023-03-31T03:03:32;11.00;99.90
25716;DHT22;13573;50.936;4.328;2023-03-31T03:06:03;11.10;99.90
25716;DHT22;13573;50.936;4.328;2023-03-31T03:11:24;12.50;99.90
25716;DHT22;13573;50.936;4.328;2023-03-31T03:18:59;11.10;99.90
25716;DHT22;13573;50.936;4.328;2023-03-31T03:21:26;11.20;99.90
25716;DHT22;13573;50.936;4.328;2023-03-31T03:26:20;11.10;99.90
25716;DHT22;13573;50.936;4.328;2023-03-31T03:31:16;10.70;99.90
25716;DHT22;13573;50.936;4.328;2023-03-31T03:33:43;10.80;99.90
25716;DHT22;13573;50.936;4.328;2023-03-31T03:38:36;10.80;99.90
25716;DHT22;13573;50.936;4.328;2023-03-31T03:43:29;10.90;99.90
25716;DHT22;13573;50.936;4.328;2023-03-31T03:45:56;10.90;99.90
25716;DHT22;13573;50.936;4.328;2023-03-31T03:48:23;11.00;99.90
25716;DHT22;13573;50.936;4.328;2023-03-31T03:50:49;10.70;99.90
25716;DHT22;13573;50.936;4.328;2023-03-31T03:53:18;10.40;99.90
25716;DHT22;13573;50.936;4.328;2023-03-31T04:00:42;10.70;99.90
25716;DHT22;13573;50.936;4.328;2023-03-31T04:03:10;10.60;99.90
25716;DHT22;13573;50.936;4.328;2023-03-31T04:05:37;10.50;99.90
25716;DHT22;13573;50.936;4.328;2023-03-31T04:08:04;10.40;99.90
25716;DHT22;13573;50.936;4.328;2023-03-31T04:10:34;10.40;99.90
25716;DHT22;13573;50.936;4.328;2023-03-31T04:15:27;11.20;99.90
25716;DHT22;13573;50.936;4.328;2023-03-31T04:20:23;9.70;99.90
25716;DHT22;13573;50.936;4.328;2023-03-31T04:27:49;9.60;99.90
25716;DHT22;13573;50.936;4.328;2023-03-31T04:30:20;9.90;99.90
25716;DHT22;13573;50.936;4.328;2023-03-31T04:32:53;9.70;99.90
25716;DHT22;13573;50.936;4.328;2023-03-31T04:37:49;9.90;99.90
25716;DHT22;13573;50.936;4.328;2023-03-31T04:40:17;9.90;99.90
25716;DHT22;13573;50.936;4.328;2023-03-31T04:42:44;10.10;99.90
25716;DHT22;13573;50.936;4.328;2023-03-31T04:45:11;9.80;99.90
25716;DHT22;13573;50.936;4.328;2023-03-31T04:47:38;10.00;99.90
25716;DHT22;13573;50.936;4.328;2023-03-31T04:54:59;10.20;99.90
25716;DHT22;13573;50.936;4.328;2023-03-31T04:57:26;10.10;99.90
25716;DHT22;13573;50.936;4.328;2023-03-31T05:02:19;10.10;99.90
25716;DHT22;13573;50.936;4.328;2023-03-31T05:07:17;10.30;99.90
25716;DHT22;13573;50.936;4.328;2023-03-31T05:09:44;10.00;99.90
25716;DHT22;13573;50.936;4.328;2023-03-31T05:17:05;10.50;99.90
25716;DHT22;13573;50.936;4.328;2023-03-31T05:19:32;10.50;99.90
25716;DHT22;13573;50.936;4.328;2023-03-31T05:21:58;10.50;99.90
25716;DHT22;13573;50.936;4.328;2023-03-31T05:29:22;11.60;99.90
25716;DHT22;13573;50.936;4.328;2023-03-31T05:34:18;10.60;99.90
25716;DHT22;13573;50.936;4.328;2023-03-31T05:39:15;10.70;99.90
25716;DHT22;13573;50.936;4.328;2023-03-31T05:41:41;10.70;99.90
25716;DHT22;13573;50.936;4.328;2023-03-31T05:46:35;11.00;99.90
25716;DHT22;13573;50.936;4.328;2023-03-31T05:56:22;10.80;99.90
25716;DHT22;13573;50.936;4.328;2023-03-31T05:58:49;10.90;99.90
25716;DHT22;13573;50.936;4.328;2023-03-31T06:01:16;11.00;99.90
25716;DHT22;13573;50.936;4.328;2023-03-31T06:06:14;10.90;99.90
25716;DHT22;13573;50.936;4.328;2023-03-31T06:08:42;11.30;99.90
25716;DHT22;13573;50.936;4.328;2023-03-31T06:28:20;11.40;99.90
25716;DHT22;13573;50.936;4.328;2023-03-31T06:38:08;11.50;99.90
25716;DHT22;13573;50.936;4.328;2023-03-31T07:32:01;11.80;99.90
25716;DHT22;13573;50.936;4.328;2023-03-31T07:51:37;12.50;99.90
25716;DHT22;13573;50.936;4.328;2023-03-31T08:03:53;11.80;99.90
25716;DHT22;13573;50.936;4.328;2023-03-31T08:08:49;10.40;99.90
25716;DHT22;13573;50.936;4.328;2023-03-31T08:21:03;13.10;99.90
25716;DHT22;13573;50.936;4.328;2023-03-31T08:33:25;11.60;99.90
25716;DHT22;13573;50.936;4.328;2023-03-31T08:38:18;11.70;99.90
25716;DHT22;13573;50.936;4.328;2023-03-31T08:50:46;12.20;99.90
25716;DHT22;13573;50.936;4.328;2023-03-31T09:36:41;12.50;99.90
25716;DHT22;13573;50.936;4.328;2023-03-31T09:49:10;12.00;99.90
25716;DHT22;13573;50.936;4.328;2023-03-31T09:54:13;11.90;99.90
25716;DHT22;13573;50.936;4.328;2023-03-31T10:01:45;11.60;99.90
25716;DHT22;13573;50.936;4.328;2023-03-31T10:16:47;10.50;99.90
25716;DHT22;13573;50.936;4.328;2023-03-31T10:26:37;11.60;99.90
25716;DHT22;13573;50.936;4.328;2023-03-31T10:29:09;11.70;99.90
25716;DHT22;13573;50.936;4.328;2023-03-31T10:34:07;12.00;99.90
25716;DHT22;13573;50.936;4.328;2023-03-31T11:25:22;12.90;99.90
25716;DHT22;13573;50.936;4.328;2023-03-31T11:30:46;13.80;99.90
25716;DHT22;13573;50.936;4.328;2023-03-31T11:44:13;13.20;99.90
25716;DHT22;13573;50.936;4.328;2023-03-31T11:54:49;13.40;99.90
25716;DHT22;13573;50.936;4.328;2023-03-31T11:57:18;13.20;99.90
25716;DHT22;13573;50.936;4.328;2023-03-31T11:59:49;13.00;99.90
25716;DHT22;13573;50.936;4.328;2023-03-31T12:02:18;11.70;99.90
25716;DHT22;13573;50.936;4.328;2023-03-31T12:04:50;12.80;99.90
25716;DHT22;13573;50.936;4.328;2023-03-31T12:22:28;12.20;99.90
25716;DHT22;13573;50.936;4.328;2023-03-31T12:24:55;12.10;99.90
25716;DHT22;13573;50.936;4.328;2023-03-31T12:27:28;11.90;99.90
25716;DHT22;13573;50.936;4.328;2023-03-31T12:29:59;11.70;99.90
25716;DHT22;13573;50.936;4.328;2023-03-31T12:35:01;11.70;99.90
25716;DHT22;13573;50.936;4.328;2023-03-31T13:00:21;12.10;99.90
25716;DHT22;13573;50.936;4.328;2023-03-31T13:12:59;12.20;99.90
25716;DHT22;13573;50.936;4.328;2023-03-31T13:15:27;12.20;99.90
25716;DHT22;13573;50.936;4.328;2023-03-31T13:20:36;12.30;99.90
25716;DHT22;13573;50.936;4.328;2023-03-31T13:30:51;11.70;99.90
25716;DHT22;13573;50.936;4.328;2023-03-31T13:43:30;11.90;99.90
25716;DHT22;13573;50.936;4.328;2023-03-31T13:51:48;11.80;99.90
25716;DHT22;13573;50.936;4.328;2023-03-31T14:17:09;12.10;99.90
25716;DHT22;13573;50.936;4.328;2023-03-31T14:19:51;12.20;99.90
25716;DHT22;13573;50.936;4.328;2023-03-31T14:22:22;12.00;99.90
25716;DHT22;13573;50.936;4.328;2023-03-31T14:30:17;10.60;99.90
25716;DHT22;13573;50.936;4.328;2023-03-31T14:38:04;11.60;99.90
25716;DHT22;13573;50.936;4.328;2023-03-31T14:50:30;12.30;99.90
25716;DHT22;13573;50.936;4.328;2023-03-31T14:52:58;11.70;99.90
25716;DHT22;13573;50.936;4.328;2023-03-31T15:00:26;13.30;99.90
25716;DHT22;13573;50.936;4.328;2023-03-31T15:10:19;11.60;99.90
25716;DHT22;13573;50.936;4.328;2023-03-31T15:12:48;12.30;99.90
25716;DHT22;13573;50.936;4.328;2023-03-31T15:27:46;11.60;99.90
25716;DHT22;13573;50.936;4.328;2023-03-31T15:35:25;11.30;99.90
25716;DHT22;13573;50.936;4.328;2023-03-31T15:40:24;11.70;99.90
25716;DHT22;13573;50.936;4.328;2023-03-31T15:42:55;10.40;99.90
25716;DHT22;13573;50.936;4.328;2023-03-31T15:47:52;11.40;99.90
25716;DHT22;13573;50.936;4.328;2023-03-31T15:52:50;12.90;99.90
25716;DHT22;13573;50.936;4.328;2023-03-31T16:00:42;11.20;99.90
25716;DHT22;13573;50.936;4.328;2023-03-31T16:05:48;10.90;99.90
25716;DHT22;13573;50.936;4.328;2023-03-31T16:10:45;10.80;99.90
25716;DHT22;13573;50.936;4.328;2023-03-31T16:13:17;10.30;99.90
25716;DHT22;13573;50.936;4.328;2023-03-31T16:15:48;10.80;99.90
25716;DHT22;13573;50.936;4.328;2023-03-31T16:18:32;10.70;99.90
25716;DHT22;13573;50.936;4.328;2023-03-31T16:21:01;10.60;99.90
25716;DHT22;13573;50.936;4.328;2023-03-31T16:23:31;9.50;99.90
25716;DHT22;13573;50.936;4.328;2023-03-31T16:28:29;10.50;99.90
25716;DHT22;13573;50.936;4.328;2023-03-31T16:35:53;10.70;99.90
25716;DHT22;13573;50.936;4.328;2023-03-31T16:43:19;10.40;99.90
25716;DHT22;13573;50.936;4.328;2023-03-31T16:50:45;10.20;99.90
25716;DHT22;13573;50.936;4.328;2023-03-31T16:55:40;10.20;99.90
25716;DHT22;13573;50.936;4.328;2023-03-31T17:00:34;10.40;99.90
25716;DHT22;13573;50.936;4.328;2023-03-31T17:03:02;10.40;99.90
25716;DHT22;13573;50.936;4.328;2023-03-31T17:10:25;10.40;99.90
25716;DHT22;13573;50.936;4.328;2023-03-31T17:12:51;10.40;99.90
25716;DHT22;13573;50.936;4.328;2023-03-31T17:15:18;10.10;99.90
25716;DHT22;13573;50.936;4.328;2023-03-31T17:17:45;10.30;99.90
25716;DHT22;13573;50.936;4.328;2023-03-31T17:22:39;10.30;99.90
25716;DHT22;13573;50.936;4.328;2023-03-31T17:32:27;10.30;99.90
25716;DHT22;13573;50.936;4.328;2023-03-31T17:34:54;10.40;99.90
25716;DHT22;13573;50.936;4.328;2023-03-31T17:37:21;10.40;99.90
25716;DHT22;13573;50.936;4.328;2023-03-31T17:39:47;10.40;99.90
25716;DHT22;13573;50.936;4.328;2023-03-31T17:42:15;10.40;99.90
25716;DHT22;13573;50.936;4.328;2023-03-31T17:44:43;10.70;99.90
25716;DHT22;13573;50.936;4.328;2023-03-31T17:47:12;10.30;99.90
25716;DHT22;13573;50.936;4.328;2023-03-31T17:49:40;10.30;99.90
25716;DHT22;13573;50.936;4.328;2023-03-31T17:52:07;10.30;99.90
25716;DHT22;13573;50.936;4.328;2023-03-31T17:54:33;10.20;99.90
25716;DHT22;13573;50.936;4.328;2023-03-31T17:57:00;10.30;99.90
25716;DHT22;13573;50.936;4.328;2023-03-31T18:01:53;10.20;99.90
25716;DHT22;13573;50.936;4.328;2023-03-31T18:04:20;10.20;99.90
25716;DHT22;13573;50.936;4.328;2023-03-31T18:06:47;10.20;99.90
25716;DHT22;13573;50.936;4.328;2023-03-31T18:09:15;10.20;99.90
25716;DHT22;13573;50.936;4.328;2023-03-31T18:11:42;10.20;99.90
25716;DHT22;13573;50.936;4.328;2023-03-31T18:14:09;10.20;99.90
25716;DHT22;13573;50.936;4.328;2023-03-31T18:23:56;10.10;99.90
25716;DHT22;13573;50.936;4.328;2023-03-31T18:26:24;10.20;99.90
25716;DHT22;13573;50.936;4.328;2023-03-31T18:31:19;10.10;99.90
25716;DHT22;13573;50.936;4.328;2023-03-31T18:36:18;10.00;99.90
25716;DHT22;13573;50.936;4.328;2023-03-31T18:38:46;10.10;99.90
25716;DHT22;13573;50.936;4.328;2023-03-31T18:43:40;9.80;99.90
25716;DHT22;13573;50.936;4.328;2023-03-31T18:46:07;10.10;99.90
25716;DHT22;13573;50.936;4.328;2023-03-31T18:51:03;10.10;99.90
25716;DHT22;13573;50.936;4.328;2023-03-31T18:53:30;10.10;99.90
25716;DHT22;13573;50.936;4.328;2023-03-31T19:00:51;10.20;99.90
25716;DHT22;13573;50.936;4.328;2023-03-31T19:05:44;10.20;99.90
25716;DHT22;13573;50.936;4.328;2023-03-31T19:08:11;10.10;99.90
25716;DHT22;13573;50.936;4.328;2023-03-31T19:13:05;10.40;99.90
25716;DHT22;13573;50.936;4.328;2023-03-31T19:18:01;10.10;99.90
25716;DHT22;13573;50.936;4.328;2023-03-31T19:20:30;10.00;99.90
25716;DHT22;13573;50.936;4.328;2023-03-31T19:22:56;10.00;99.90
25716;DHT22;13573;50.936;4.328;2023-03-31T19:27:50;10.10;99.90
25716;DHT22;13573;50.936;4.328;2023-03-31T19:30:21;10.20;99.90
25716;DHT22;13573;50.936;4.328;2023-03-31T19:37:43;10.40;99.90
25716;DHT22;13573;50.936;4.328;2023-03-31T19:42:36;10.00;99.90
25716;DHT22;13573;50.936;4.328;2023-03-31T19:52:24;10.30;99.90
25716;DHT22;13573;50.936;4.328;2023-03-31T19:57:20;10.00;99.90
25716;DHT22;13573;50.936;4.328;2023-03-31T20:04:40;9.80;99.90
25716;DHT22;13573;50.936;4.328;2023-03-31T20:12:01;9.90;99.90
25716;DHT22;13573;50.936;4.328;2023-03-31T20:14:28;10.00;99.90
25716;DHT22;13573;50.936;4.328;2023-03-31T20:21:51;9.90;99.90
25716;DHT22;13573;50.936;4.328;2023-03-31T20:29:13;10.20;99.90
25716;DHT22;13573;50.936;4.328;2023-03-31T20:36:38;9.90;99.90
25716;DHT22;13573;50.936;4.328;2023-03-31T20:41:35;9.80;99.90
25716;DHT22;13573;50.936;4.328;2023-03-31T20:44:04;9.80;99.90
25716;DHT22;13573;50.936;4.328;2023-03-31T20:46:32;9.80;99.90
25716;DHT22;13573;50.936;4.328;2023-03-31T20:51:29;9.80;99.90
25716;DHT22;13573;50.936;4.328;2023-03-31T20:56:28;9.70;99.90
25716;DHT22;13573;50.936;4.328;2023-03-31T20:58:56;9.80;99.90
25716;DHT22;13573;50.936;4.328;2023-03-31T21:03:52;9.80;99.90
25716;DHT22;13573;50.936;4.328;2023-03-31T21:06:22;9.80;99.90
25716;DHT22;13573;50.936;4.328;2023-03-31T21:11:17;8.80;99.90
25716;DHT22;13573;50.936;4.328;2023-03-31T21:13:44;9.80;99.90
25716;DHT22;13573;50.936;4.328;2023-03-31T21:16:13;9.70;99.90
25716;DHT22;13573;50.936;4.328;2023-03-31T21:18:41;9.90;99.90
25716;DHT22;13573;50.936;4.328;2023-03-31T21:23:37;9.90;99.90
25716;DHT22;13573;50.936;4.328;2023-03-31T21:26:06;9.80;99.90
25716;DHT22;13573;50.936;4.328;2023-03-31T21:28:35;9.90;99.90
25716;DHT22;13573;50.936;4.328;2023-03-31T21:31:06;9.80;99.90
25716;DHT22;13573;50.936;4.328;2023-03-31T21:33:35;9.90;99.90
25716;DHT22;13573;50.936;4.328;2023-03-31T21:48:22;9.60;99.90
25716;DHT22;13573;50.936;4.328;2023-03-31T21:55:47;9.80;99.90
25716;DHT22;13573;50.936;4.328;2023-03-31T21:58:18;9.80;99.90
25716;DHT22;13573;50.936;4.328;2023-03-31T22:00:46;9.90;99.90
25716;DHT22;13573;50.936;4.328;2023-03-31T22:05:39;9.80;99.90
25716;DHT22;13573;50.936;4.328;2023-03-31T22:08:06;9.60;99.90
25716;DHT22;13573;50.936;4.328;2023-03-31T22:10:33;9.90;99.90
25716;DHT22;13573;50.936;4.328;2023-03-31T22:15:26;9.80;99.90
25716;DHT22;13573;50.936;4.328;2023-03-31T22:20:20;9.70;99.90
25716;DHT22;13573;50.936;4.328;2023-03-31T22:30:08;9.70;99.90
25716;DHT22;13573;50.936;4.328;2023-03-31T22:35:02;9.70;99.90
25716;DHT22;13573;50.936;4.328;2023-03-31T22:37:29;9.60;99.90
25716;DHT22;13573;50.936;4.328;2023-03-31T22:42:22;9.70;99.90
25716;DHT22;13573;50.936;4.328;2023-03-31T22:47:15;9.70;99.90
25716;DHT22;13573;50.936;4.328;2023-03-31T22:49:42;9.70;99.90
25716;DHT22;13573;50.936;4.328;2023-03-31T22:52:09;9.70;99.90
25716;DHT22;13573;50.936;4.328;2023-03-31T22:54:36;9.80;99.90
25716;DHT22;13573;50.936;4.328;2023-03-31T22:57:05;10.90;99.90
25716;DHT22;13573;50.936;4.328;2023-03-31T23:04:25;9.60;99.90
25716;DHT22;13573;50.936;4.328;2023-03-31T23:06:52;9.70;99.90
25716;DHT22;13573;50.936;4.328;2023-03-31T23:09:20;9.70;99.90
25716;DHT22;13573;50.936;4.328;2023-03-31T23:14:15;9.70;99.90
25716;DHT22;13573;50.936;4.328;2023-03-31T23:19:09;9.70;99.90
25716;DHT22;13573;50.936;4.328;2023-03-31T23:24:04;10.90;99.90
25716;DHT22;13573;50.936;4.328;2023-03-31T23:26:33;9.80;99.90
25716;DHT22;13573;50.936;4.328;2023-03-31T23:33:56;9.70;99.90
25716;DHT22;13573;50.936;4.328;2023-03-31T23:36:23;9.70;99.90
25716;DHT22;13573;50.936;4.328;2023-03-31T23:38:52;9.60;99.90
25716;DHT22;13573;50.936;4.328;2023-03-31T23:41:19;9.40;99.90
25716;DHT22;13573;50.936;4.328;2023-03-31T23:48:42;9.50;99.90
25716;DHT22;13573;50.936;4.328;2023-03-31T23:51:10;9.40;99.90
25716;DHT22;13573;50.936;4.328;2023-03-31T23:53:37;9.70;99.90
25716;DHT22;13573;50.936;4.328;2023-03-31T23:58:32;9.40;99.90
